Time;durP1;ratioP1;P1;durP2;ratioP2;P2;SDS_P1;SDS_P2;PMS_P1;PMS_P2;Temp;Humidity;BMP_temperature;BMP_pressure;BME280_temperature;BME280_humidity;BME280_pressure;Samples;Min_cycle;Max_cycle;Signal;HPM_P1;HPM_P2
2021/04/25 00:00:39;;;;;;;3.65;2.20;;;14.00;68.80;;;;;;5093194;28;20044;-58
2021/04/25 00:03:05;;;;;;;2.10;1.85;;;14.00;68.80;;;;;;5093095;28;20044;-60
2021/04/25 00:05:31;;;;;;;3.05;2.20;;;13.90;68.70;;;;;;5093187;28;20048;-57
2021/04/25 00:07:57;;;;;;;3.72;2.03;;;13.90;68.70;;;;;;5093274;28;20052;-59
2021/04/25 00:10:22;;;;;;;2.88;1.92;;;14.00;68.80;;;;;;5093293;28;20068;-59
2021/04/25 00:12:49;;;;;;;3.85;2.20;;;14.00;68.80;;;;;;5092946;28;20050;-59
2021/04/25 00:15:21;;;;;;;2.65;2.00;;;13.90;68.70;;;;;;5093005;28;20048;-59
2021/04/25 00:17:47;;;;;;;2.53;2.00;;;13.90;68.70;;;;;;5092969;28;20059;-60
2021/04/25 00:20:17;;;;;;;2.80;2.10;;;13.90;68.70;;;;;;5093226;28;20055;-54
2021/04/25 00:22:44;;;;;;;2.50;1.88;;;13.90;68.70;;;;;;5091510;28;20119;-60
2021/04/25 00:25:11;;;;;;;2.95;2.05;;;13.90;68.70;;;;;;5093076;28;20056;-60
2021/04/25 00:27:37;;;;;;;2.97;2.00;;;13.90;68.70;;;;;;5092863;28;20047;-60
2021/04/25 00:30:06;;;;;;;3.72;2.10;;;14.00;68.80;;;;;;5092906;28;20403;-60
2021/04/25 00:32:31;;;;;;;2.58;1.80;;;13.90;68.70;;;;;;5092789;28;20040;-56
2021/04/25 00:34:57;;;;;;;2.72;2.13;;;13.90;68.80;;;;;;5093098;28;20052;-53
2021/04/25 00:37:23;;;;;;;2.90;1.92;;;13.90;68.70;;;;;;5092515;28;20537;-59
2021/04/25 00:39:48;;;;;;;2.47;1.92;;;13.90;68.80;;;;;;5092975;28;20044;-55
2021/04/25 00:42:14;;;;;;;2.67;1.80;;;13.90;68.70;;;;;;5091424;28;20052;-54
2021/04/25 00:44:44;;;;;;;2.47;2.00;;;13.90;68.70;;;;;;5092858;28;20052;-58
2021/04/25 00:47:11;;;;;;;3.83;2.10;;;13.90;68.70;;;;;;5092640;28;20347;-59
2021/04/25 00:49:36;;;;;;;2.85;2.00;;;13.90;68.70;;;;;;5093266;28;20048;-58
2021/04/25 00:52:03;;;;;;;2.50;1.92;;;13.90;68.80;;;;;;5092671;28;20515;-54
2021/04/25 00:54:29;;;;;;;3.10;2.10;;;13.90;68.80;;;;;;5092403;28;20048;-53
2021/04/25 00:56:55;;;;;;;3.20;1.83;;;13.90;68.90;;;;;;5092540;28;20074;-57
2021/04/25 00:59:22;;;;;;;2.85;2.10;;;13.90;68.80;;;;;;5092632;28;20078;-56
2021/04/25 01:01:47;;;;;;;2.60;2.00;;;13.80;68.80;;;;;;5092598;28;20052;-55
2021/04/25 01:04:13;;;;;;;2.72;1.65;;;13.90;68.80;;;;;;5092776;28;20059;-60
2021/04/25 01:06:39;;;;;;;2.38;1.98;;;13.90;68.80;;;;;;5095846;28;20122;-54
2021/04/25 01:09:05;;;;;;;3.13;2.22;;;13.90;68.90;;;;;;5095987;28;20050;-52
2021/04/25 01:11:31;;;;;;;2.58;1.80;;;13.90;68.80;;;;;;5096358;28;20063;-56
2021/04/25 01:13:57;;;;;;;3.42;2.13;;;13.90;68.80;;;;;;5096352;28;20078;-53
2021/04/25 01:16:22;;;;;;;3.28;2.30;;;13.90;68.80;;;;;;5096281;28;20124;-55
2021/04/25 01:18:48;;;;;;;3.05;1.88;;;13.90;68.80;;;;;;5096125;28;20063;-52
2021/04/25 01:21:14;;;;;;;2.35;1.80;;;13.90;68.90;;;;;;5096141;28;20051;-55
2021/04/25 01:23:40;;;;;;;2.85;2.10;;;13.90;68.80;;;;;;5095556;28;20052;-60
2021/04/25 01:26:06;;;;;;;4.32;2.30;;;13.80;68.80;;;;;;5096229;28;20054;-53
2021/04/25 01:28:32;;;;;;;3.47;1.73;;;13.90;68.80;;;;;;5096091;28;20036;-57
2021/04/25 01:30:59;;;;;;;2.60;1.80;;;13.90;68.80;;;;;;5095991;28;20127;-49
2021/04/25 01:33:27;;;;;;;2.47;1.88;;;13.90;68.80;;;;;;5095754;28;20177;-55
2021/04/25 01:35:54;;;;;;;2.35;1.90;;;13.90;68.80;;;;;;5095918;28;20047;-46
2021/04/25 01:38:20;;;;;;;3.30;1.83;;;13.90;68.80;;;;;;5095970;28;20059;-51
2021/04/25 01:40:45;;;;;;;2.78;1.98;;;13.80;68.80;;;;;;5095420;28;20035;-48
2021/04/25 01:43:11;;;;;;;2.60;1.67;;;13.80;68.80;;;;;;5095791;28;20051;-46
2021/04/25 01:45:37;;;;;;;3.13;1.75;;;13.90;68.90;;;;;;5095767;28;20136;-47
2021/04/25 01:48:05;;;;;;;2.45;1.83;;;13.90;68.80;;;;;;5095696;28;20109;-45
2021/04/25 01:50:32;;;;;;;3.17;1.60;;;13.90;68.90;;;;;;5095782;28;20084;-60
2021/04/25 01:53:00;;;;;;;3.33;2.20;;;13.80;68.80;;;;;;5095311;28;20048;-60
2021/04/25 01:55:30;;;;;;;2.35;1.70;;;13.80;68.80;;;;;;5095415;28;20052;-60
2021/04/25 01:57:56;;;;;;;2.90;1.88;;;13.90;68.90;;;;;;5095667;28;20063;-52
2021/04/25 02:00:31;;;;;;;2.58;1.63;;;13.80;68.80;;;;;;5095540;28;20134;-45
2021/04/25 02:02:57;;;;;;;3.58;1.83;;;13.90;68.90;;;;;;5095448;28;20044;-51
2021/04/25 02:05:24;;;;;;;2.30;1.50;;;13.80;68.80;;;;;;5095440;28;20058;-59
2021/04/25 02:07:51;;;;;;;2.13;1.70;;;13.80;68.80;;;;;;5095489;28;20048;-60
2021/04/25 02:10:17;;;;;;;2.28;1.77;;;13.80;68.80;;;;;;5095130;28;20048;-60
2021/04/25 02:12:43;;;;;;;4.30;2.20;;;13.80;68.80;;;;;;5095226;28;20063;-60
2021/04/25 02:15:10;;;;;;;3.92;1.85;;;13.80;68.90;;;;;;5095187;28;20044;-59
2021/04/25 02:17:35;;;;;;;2.22;1.73;;;13.80;68.80;;;;;;5094762;28;20480;-60
2021/04/25 02:20:05;;;;;;;3.00;1.80;;;13.80;68.90;;;;;;5095203;28;20044;-58
2021/04/25 02:22:31;;;;;;;2.95;1.90;;;13.80;68.90;;;;;;5093802;28;20100;-59
2021/04/25 02:24:57;;;;;;;3.13;1.60;;;13.80;68.90;;;;;;5095041;28;20433;-60
2021/04/25 02:27:22;;;;;;;4.28;2.30;;;13.80;68.90;;;;;;5094759;28;20048;-60
2021/04/25 02:29:48;;;;;;;2.63;1.75;;;13.80;69.60;;;;;;5094858;28;20484;-60
2021/04/25 02:32:14;;;;;;;2.35;1.30;;;13.80;68.90;;;;;;5094743;28;20118;-60
2021/04/25 02:34:39;;;;;;;2.85;1.80;;;13.80;68.90;;;;;;5094653;28;20055;-49
2021/04/25 02:37:05;;;;;;;2.08;1.67;;;13.80;68.90;;;;;;5094716;28;20148;-58
2021/04/25 02:39:31;;;;;;;2.00;1.30;;;13.80;69.00;;;;;;5094787;28;20044;-59
2021/04/25 02:41:56;;;;;;;1.83;1.30;;;13.80;69.00;;;;;;5092965;28;20048;-58
2021/04/25 02:44:22;;;;;;;2.38;1.63;;;13.80;69.00;;;;;;5094661;28;20044;-60
2021/04/25 02:46:48;;;;;;;3.08;1.67;;;13.80;69.00;;;;;;5094610;28;20127;-60
2021/04/25 02:49:13;;;;;;;2.65;1.42;;;13.80;69.00;;;;;;5094273;28;20052;-58
2021/04/25 02:51:39;;;;;;;3.88;2.28;;;13.80;69.00;;;;;;5094653;28;20485;-59
2021/04/25 02:54:05;;;;;;;2.45;1.60;;;13.80;69.10;;;;;;5094575;28;20052;-60
2021/04/25 02:56:31;;;;;;;2.55;1.80;;;13.80;69.00;;;;;;5094240;28;20079;-59
2021/04/25 02:58:57;;;;;;;2.40;1.60;;;13.80;69.00;;;;;;5094278;28;20048;-60
2021/04/25 03:01:23;;;;;;;1.83;1.50;;;13.70;69.00;;;;;;5094107;28;20484;-59
2021/04/25 03:03:49;;;;;;;1.85;1.30;;;13.80;69.10;;;;;;5094118;28;20044;-60
2021/04/25 03:06:14;;;;;;;2.10;1.60;;;13.80;69.10;;;;;;5094476;28;20051;-60
2021/04/25 03:08:40;;;;;;;2.42;1.63;;;13.80;69.10;;;;;;5094475;28;20054;-60
2021/04/25 03:11:06;;;;;;;2.70;1.40;;;13.80;69.00;;;;;;5094065;28;20036;-60
2021/04/25 03:13:32;;;;;;;4.82;1.75;;;13.80;69.10;;;;;;5093724;28;20403;-56
2021/04/25 03:15:57;;;;;;;2.42;1.38;;;13.80;69.10;;;;;;5093959;28;20067;-50
2021/04/25 03:18:23;;;;;;;1.92;1.50;;;13.80;69.10;;;;;;5093871;28;20044;-51
2021/04/25 03:20:49;;;;;;;2.67;1.40;;;13.80;69.00;;;;;;5094023;28;20130;-54
2021/04/25 03:23:15;;;;;;;2.22;1.58;;;13.70;69.00;;;;;;5094077;28;20126;-52
2021/04/25 03:25:41;;;;;;;1.63;1.30;;;13.80;69.10;;;;;;5093920;28;20044;-58
2021/04/25 03:28:07;;;;;;;1.60;1.20;;;13.80;69.10;;;;;;5093018;28;20059;-57
2021/04/25 03:30:32;;;;;;;2.80;1.83;;;13.80;69.00;;;;;;5093613;28;20074;-54
2021/04/25 03:32:58;;;;;;;3.17;1.60;;;13.80;69.10;;;;;;5093698;28;20047;-49
2021/04/25 03:35:24;;;;;;;1.75;1.30;;;13.80;69.10;;;;;;5093577;28;20048;-55
2021/04/25 03:37:50;;;;;;;2.40;1.73;;;13.80;69.10;;;;;;5093798;28;20052;-50
2021/04/25 03:40:18;;;;;;;2.60;1.60;;;13.80;69.10;;;;;;5093624;28;20047;-50
2021/04/25 03:42:44;;;;;;;1.85;1.40;;;13.70;69.00;;;;;;5093423;28;20146;-45
2021/04/25 03:45:13;;;;;;;2.25;1.45;;;13.80;69.10;;;;;;5093086;28;20135;-53
2021/04/25 03:47:48;;;;;;;2.17;1.25;;;13.70;69.00;;;;;;5093523;28;20101;-49
2021/04/25 03:50:16;;;;;;;1.67;1.30;;;13.70;69.00;;;;;;5093360;28;20131;-57
2021/04/25 03:52:43;;;;;;;3.20;1.70;;;13.70;69.00;;;;;;5093474;28;20048;-49
2021/04/25 03:55:09;;;;;;;1.80;1.30;;;13.70;69.00;;;;;;5093223;28;20148;-50
2021/04/25 03:57:35;;;;;;;2.50;1.60;;;13.70;69.10;;;;;;5093263;28;20124;-53
2021/04/25 04:00:01;;;;;;;2.70;1.40;;;13.70;69.10;;;;;;5093046;28;20123;-50
2021/04/25 04:02:27;;;;;;;2.53;1.38;;;13.70;69.10;;;;;;5093120;28;20058;-51
2021/04/25 04:04:53;;;;;;;2.15;1.58;;;13.70;69.00;;;;;;5093055;28;20052;-49
2021/04/25 04:07:18;;;;;;;1.63;1.42;;;13.70;69.10;;;;;;5093254;28;20113;-53
2021/04/25 04:09:44;;;;;;;1.92;1.65;;;13.70;69.10;;;;;;5093076;28;20048;-50
2021/04/25 04:12:11;;;;;;;2.45;1.60;;;13.70;69.10;;;;;;5092761;28;20110;-51
2021/04/25 04:14:37;;;;;;;1.58;1.45;;;13.70;69.10;;;;;;5092178;28;20074;-52
2021/04/25 04:17:03;;;;;;;2.42;1.77;;;13.70;69.10;;;;;;5092376;28;20488;-49
2021/04/25 04:19:29;;;;;;;3.33;1.50;;;13.70;69.10;;;;;;5092019;28;20119;-48
2021/04/25 04:21:55;;;;;;;1.58;1.48;;;13.70;69.10;;;;;;5092266;28;20127;-51
2021/04/25 04:24:21;;;;;;;2.05;1.30;;;13.70;69.10;;;;;;5092112;28;20044;-49
2021/04/25 04:26:46;;;;;;;1.92;1.42;;;13.60;69.10;;;;;;5092319;28;20480;-48
2021/04/25 04:29:13;;;;;;;2.58;1.52;;;13.70;69.10;;;;;;5093001;28;20044;-48
2021/04/25 04:31:38;;;;;;;2.65;1.70;;;13.70;69.10;;;;;;5092705;28;20044;-51
2021/04/25 04:34:04;;;;;;;2.67;1.50;;;13.70;69.20;;;;;;5092612;28;20116;-51
2021/04/25 04:36:30;;;;;;;2.55;1.42;;;13.70;69.10;;;;;;5092799;28;20055;-49
2021/04/25 04:38:55;;;;;;;2.10;1.40;;;13.70;69.10;;;;;;5092975;28;20044;-54
2021/04/25 04:41:21;;;;;;;2.92;1.50;;;13.70;69.20;;;;;;5095825;28;20148;-47
2021/04/25 04:43:47;;;;;;;2.42;1.58;;;13.70;69.20;;;;;;5097216;28;20396;-57
2021/04/25 04:46:13;;;;;;;1.45;1.30;;;13.70;69.20;;;;;;5096708;28;20071;-55
2021/04/25 04:48:38;;;;;;;2.97;1.38;;;13.70;69.20;;;;;;5096885;28;20048;-48
2021/04/25 04:51:04;;;;;;;1.83;1.42;;;13.70;69.20;;;;;;5096780;28;20135;-57
2021/04/25 04:53:30;;;;;;;2.28;1.35;;;13.70;69.20;;;;;;5095790;28;20424;-51
2021/04/25 04:55:55;;;;;;;1.60;1.30;;;13.70;69.20;;;;;;5096665;28;20047;-54
2021/04/25 04:58:22;;;;;;;1.65;1.10;;;13.70;69.20;;;;;;5096827;28;20385;-58
2021/04/25 05:00:48;;;;;;;2.45;1.25;;;13.70;69.20;;;;;;5096483;28;20404;-55
2021/04/25 05:03:15;;;;;;;1.55;1.20;;;13.70;69.20;;;;;;5096504;28;20547;-50
2021/04/25 05:05:41;;;;;;;3.25;2.00;;;13.70;69.20;;;;;;5096507;28;20048;-56
2021/04/25 05:08:07;;;;;;;1.77;1.20;;;13.70;69.20;;;;;;5096274;28;20047;-50
2021/04/25 05:10:32;;;;;;;2.25;1.48;;;13.70;69.30;;;;;;5096471;28;20480;-48
2021/04/25 05:12:58;;;;;;;1.33;1.23;;;13.70;69.20;;;;;;5096379;28;20044;-54
2021/04/25 05:15:24;;;;;;;3.15;1.63;;;13.60;69.20;;;;;;5096394;28;20126;-56
2021/04/25 05:17:50;;;;;;;2.40;1.40;;;13.60;69.20;;;;;;5095880;28;20484;-55
2021/04/25 05:20:16;;;;;;;1.33;1.02;;;13.70;69.20;;;;;;5096315;28;20040;-53
2021/04/25 05:22:42;;;;;;;2.38;1.20;;;13.70;69.20;;;;;;5096276;28;20452;-58
2021/04/25 05:25:09;;;;;;;1.65;1.20;;;13.70;69.30;;;;;;5096115;28;20492;-55
2021/04/25 05:27:35;;;;;;;2.20;1.38;;;13.70;69.20;;;;;;5096274;28;20055;-54
2021/04/25 05:30:02;;;;;;;1.60;1.15;;;13.60;69.20;;;;;;5096299;28;20040;-53
2021/04/25 05:32:27;;;;;;;1.50;1.20;;;13.60;69.20;;;;;;5095739;28;20399;-51
2021/04/25 05:34:53;;;;;;;1.65;1.10;;;13.70;69.20;;;;;;5095773;28;20054;-50
2021/04/25 05:37:19;;;;;;;1.50;1.38;;;13.60;69.20;;;;;;5095881;28;20048;-52
2021/04/25 05:39:45;;;;;;;2.80;1.05;;;13.60;69.20;;;;;;5096240;28;20044;-54
2021/04/25 05:42:10;;;;;;;1.13;1.02;;;13.70;69.30;;;;;;5095580;28;20138;-61
2021/04/25 05:44:36;;;;;;;1.70;1.30;;;13.70;69.20;;;;;;5095858;28;20051;-56
2021/04/25 05:47:02;;;;;;;2.20;1.15;;;13.60;69.20;;;;;;5095753;28;20547;-57
2021/04/25 05:49:29;;;;;;;1.67;1.33;;;13.70;69.30;;;;;;5095612;28;20132;-51
2021/04/25 05:51:54;;;;;;;2.28;1.38;;;13.60;69.20;;;;;;5094966;28;20040;-46
2021/04/25 05:54:20;;;;;;;1.70;1.30;;;13.70;69.30;;;;;;5095258;28;20056;-56
2021/04/25 05:56:46;;;;;;;2.28;1.50;;;13.70;69.30;;;;;;5095617;28;20044;-55
2021/04/25 05:59:12;;;;;;;1.92;1.40;;;13.60;69.20;;;;;;5095545;28;20048;-49
2021/04/25 06:01:37;;;;;;;2.28;1.27;;;13.60;69.20;;;;;;5095464;28;20044;-54
2021/04/25 06:04:05;;;;;;;1.48;1.20;;;13.70;69.30;;;;;;5094766;28;20059;-57
2021/04/25 06:06:31;;;;;;;2.22;1.02;;;13.60;69.30;;;;;;5095186;28;20459;-53
2021/04/25 06:08:58;;;;;;;1.92;1.20;;;13.60;69.20;;;;;;5095545;28;20097;-54
2021/04/25 06:11:24;;;;;;;1.67;1.23;;;13.60;69.20;;;;;;5095415;28;20044;-50
2021/04/25 06:13:50;;;;;;;1.55;1.15;;;13.60;69.20;;;;;;5095147;28;20488;-49
2021/04/25 06:16:15;;;;;;;3.40;1.52;;;13.60;69.20;;;;;;5095152;28;20122;-55
2021/04/25 06:18:41;;;;;;;2.05;1.10;;;13.60;69.20;;;;;;5094499;28;20121;-56
2021/04/25 06:21:07;;;;;;;2.05;1.17;;;13.60;69.20;;;;;;5095057;28;20051;-54
2021/04/25 06:23:32;;;;;;;1.35;1.15;;;13.60;69.20;;;;;;5095062;28;20055;-51
2021/04/25 06:25:58;;;;;;;1.38;1.15;;;13.60;69.20;;;;;;5094918;28;20101;-59
2021/04/25 06:28:27;;;;;;;1.60;1.30;;;13.60;69.20;;;;;;5095014;28;20067;-60
2021/04/25 06:30:55;;;;;;;1.40;1.10;;;13.60;69.90;;;;;;5095012;28;20048;-57
2021/04/25 06:33:20;;;;;;;1.45;1.20;;;13.60;69.20;;;;;;5094780;28;20155;-60
2021/04/25 06:35:46;;;;;;;1.70;1.23;;;13.70;69.30;;;;;;5094550;28;20482;-56
2021/04/25 06:38:11;;;;;;;3.05;1.35;;;13.60;69.20;;;;;;5093843;28;20044;-58
2021/04/25 06:40:37;;;;;;;1.30;1.15;;;13.60;69.20;;;;;;5094455;28;20044;-59
2021/04/25 06:43:04;;;;;;;1.17;1.08;;;13.60;69.20;;;;;;5094545;28;20067;-60
2021/04/25 06:45:31;;;;;;;1.52;1.17;;;13.60;69.20;;;;;;5094674;28;20059;-58
2021/04/25 06:47:57;;;;;;;3.72;1.30;;;13.60;69.20;;;;;;5094207;28;20491;-51
2021/04/25 06:50:22;;;;;;;1.65;1.20;;;13.60;69.20;;;;;;5094292;28;20044;-58
2021/04/25 06:52:48;;;;;;;1.05;0.95;;;13.60;69.20;;;;;;5094476;28;20428;-59
2021/04/25 06:55:19;;;;;;;1.50;1.08;;;13.60;69.20;;;;;;5094392;28;20056;-52
2021/04/25 06:57:46;;;;;;;1.80;1.00;;;13.60;69.20;;;;;;5093146;28;20047;-56
2021/04/25 07:00:13;;;;;;;1.48;1.10;;;13.60;69.90;;;;;;5094407;28;20063;-60
2021/04/25 07:02:40;;;;;;;1.27;1.05;;;13.60;69.20;;;;;;5093768;28;20048;-60
2021/04/25 07:05:07;;;;;;;1.17;1.02;;;13.60;69.20;;;;;;5094206;28;20055;-60
2021/04/25 07:07:33;;;;;;;1.30;1.10;;;13.60;69.20;;;;;;5094302;28;20052;-60
2021/04/25 07:09:59;;;;;;;1.77;1.10;;;13.60;69.20;;;;;;5094199;28;20055;-60
2021/04/25 07:12:26;;;;;;;1.55;1.00;;;13.60;69.20;;;;;;5094202;28;20052;-58
2021/04/25 07:14:53;;;;;;;2.97;1.50;;;13.60;69.20;;;;;;5093746;28;20058;-60
2021/04/25 07:17:19;;;;;;;1.42;1.15;;;13.60;69.20;;;;;;5113966;28;20055;-59
2021/04/25 07:19:44;;;;;;;2.25;1.15;;;13.60;69.20;;;;;;5108265;28;20043;-60
2021/04/25 07:22:10;;;;;;;1.63;1.13;;;13.60;69.20;;;;;;5093786;28;20052;-60
2021/04/25 07:24:36;;;;;;;1.58;1.02;;;13.60;69.20;;;;;;5094074;28;20071;-58
2021/04/25 07:27:03;;;;;;;1.27;1.02;;;13.60;69.10;;;;;;5094141;28;20075;-53
2021/04/25 07:29:30;;;;;;;1.83;1.17;;;13.60;69.10;;;;;;5093839;28;20489;-56
2021/04/25 07:31:57;;;;;;;1.88;1.33;;;13.60;69.10;;;;;;5099900;28;20043;-59
2021/04/25 07:34:22;;;;;;;3.30;1.13;;;13.60;69.10;;;;;;5114343;28;20422;-60
2021/04/25 07:36:48;;;;;;;1.33;1.15;;;13.60;69.10;;;;;;5113871;28;20048;-61
2021/04/25 07:39:14;;;;;;;2.97;1.10;;;13.50;69.00;;;;;;5113888;28;20418;-53
2021/04/25 07:41:40;;;;;;;2.00;1.13;;;13.60;69.10;;;;;;5113947;28;20059;-59
2021/04/25 07:44:06;;;;;;;2.13;1.20;;;13.60;69.10;;;;;;5114051;28;20052;-58
2021/04/25 07:46:32;;;;;;;1.10;0.82;;;13.60;69.10;;;;;;5113840;28;20077;-57
2021/04/25 07:48:58;;;;;;;1.52;1.15;;;13.60;69.10;;;;;;5114148;28;20052;-60
2021/04/25 07:51:24;;;;;;;3.03;1.10;;;13.60;69.10;;;;;;5113474;28;20044;-59
2021/04/25 07:53:52;;;;;;;2.75;1.27;;;13.60;69.10;;;;;;5113634;28;20055;-60
2021/04/25 07:56:18;;;;;;;1.83;1.00;;;13.60;69.10;;;;;;5113735;28;20051;-61
2021/04/25 07:58:44;;;;;;;2.05;1.20;;;13.50;69.00;;;;;;5113595;28;20479;-59
2021/04/25 08:01:10;;;;;;;2.40;1.27;;;13.60;69.10;;;;;;5113680;28;20116;-58
2021/04/25 08:03:35;;;;;;;1.02;0.80;;;13.60;69.00;;;;;;5113567;28;20403;-60
2021/04/25 08:06:04;;;;;;;2.63;1.10;;;13.60;69.00;;;;;;5113486;28;20540;-60
2021/04/25 08:08:30;;;;;;;1.35;0.98;;;13.60;69.00;;;;;;5084894;28;20048;-58
2021/04/25 08:10:56;;;;;;;1.60;1.20;;;13.60;69.10;;;;;;5092665;28;20070;-55
2021/04/25 08:13:21;;;;;;;2.30;1.17;;;13.60;69.10;;;;;;5092263;28;20043;-57
2021/04/25 08:15:47;;;;;;;1.50;1.23;;;13.60;69.10;;;;;;5080467;28;20048;-55
2021/04/25 08:18:14;;;;;;;2.63;0.95;;;13.60;69.10;;;;;;5084576;28;20060;-46
2021/04/25 08:20:40;;;;;;;2.15;1.08;;;13.60;69.10;;;;;;5086102;28;20130;-59
2021/04/25 08:23:10;;;;;;;1.55;0.90;;;13.60;69.10;;;;;;5087214;28;20048;-58
2021/04/25 08:25:35;;;;;;;1.40;1.23;;;13.60;69.10;;;;;;5087172;28;20101;-57
2021/04/25 08:28:01;;;;;;;1.85;1.10;;;13.60;69.10;;;;;;5087242;28;20051;-47
2021/04/25 08:30:27;;;;;;;2.67;0.90;;;13.60;69.10;;;;;;5087309;28;20039;-60
2021/04/25 08:32:53;;;;;;;1.83;1.05;;;13.50;69.00;;;;;;5087050;28;20040;-60
2021/04/25 08:35:19;;;;;;;1.33;0.90;;;13.60;69.10;;;;;;5085765;28;20512;-58
2021/04/25 08:37:45;;;;;;;2.22;1.00;;;13.60;69.00;;;;;;5086895;28;20044;-59
2021/04/25 08:40:12;;;;;;;1.55;0.85;;;13.60;69.10;;;;;;5087268;28;20136;-57
2021/04/25 08:42:38;;;;;;;1.75;1.10;;;13.60;69.00;;;;;;5086939;28;20415;-56
2021/04/25 08:45:05;;;;;;;1.92;1.23;;;13.60;69.00;;;;;;5085434;28;20044;-49
2021/04/25 08:47:38;;;;;;;1.67;1.15;;;13.60;69.00;;;;;;5087273;28;20060;-60
2021/04/25 08:50:04;;;;;;;2.20;1.20;;;13.60;69.00;;;;;;5086859;28;20681;-54
2021/04/25 08:52:30;;;;;;;1.63;1.20;;;13.60;69.00;;;;;;5087213;28;20722;-55
2021/04/25 08:54:57;;;;;;;1.88;1.08;;;13.60;69.00;;;;;;5085935;28;20097;-53
2021/04/25 08:57:22;;;;;;;2.15;0.95;;;13.60;69.00;;;;;;5087301;28;20093;-51
2021/04/25 08:59:48;;;;;;;1.90;0.90;;;13.60;68.90;;;;;;5086938;28;20424;-53
2021/04/25 09:02:14;;;;;;;2.05;1.13;;;13.60;68.90;;;;;;5087296;28;20072;-53
2021/04/25 09:04:40;;;;;;;2.38;1.10;;;13.60;68.90;;;;;;5086673;28;20052;-51
2021/04/25 09:07:13;;;;;;;1.90;1.10;;;13.60;69.00;;;;;;5084773;28;20052;-52
2021/04/25 09:09:48;;;;;;;2.13;1.30;;;13.60;68.90;;;;;;5086897;28;20052;-53
2021/04/25 09:12:38;;;;;;;1.15;0.90;;;13.60;68.90;;;;;;5085463;28;20415;-60
2021/04/25 09:15:24;;;;;;;1.92;0.90;;;13.60;68.90;;;;;;5086425;28;20055;-51
2021/04/25 09:18:00;;;;;;;1.17;1.08;;;13.60;68.90;;;;;;5086321;28;20047;-49
2021/04/25 09:20:47;;;;;;;3.05;1.27;;;13.60;68.90;;;;;;5086564;28;20059;-56
2021/04/25 09:23:22;;;;;;;1.95;1.45;;;13.60;68.90;;;;;;5087071;28;20044;-50
2021/04/25 09:25:59;;;;;;;1.85;0.95;;;13.60;68.90;;;;;;5086363;28;20097;-55
2021/04/25 09:28:25;;;;;;;1.33;0.90;;;13.60;68.90;;;;;;5090765;28;20044;-52
2021/04/25 09:30:59;;;;;;;2.22;1.30;;;13.50;68.80;;;;;;5089682;28;20138;-50
2021/04/25 09:33:28;;;;;;;2.47;1.13;;;13.60;68.90;;;;;;5090560;28;20070;-51
2021/04/25 09:35:58;;;;;;;1.42;0.95;;;13.60;68.90;;;;;;5089605;28;20519;-52
2021/04/25 09:38:24;;;;;;;1.60;1.05;;;13.60;68.90;;;;;;5090860;28;20454;-54
2021/04/25 09:40:51;;;;;;;2.33;1.10;;;13.60;68.90;;;;;;5089365;28;20055;-54
2021/04/25 09:43:18;;;;;;;1.38;1.08;;;13.50;68.80;;;;;;5089712;28;20059;-56
2021/04/25 09:45:50;;;;;;;1.58;1.05;;;13.60;68.90;;;;;;5089808;28;20184;-51
2021/04/25 09:48:21;;;;;;;1.23;0.85;;;13.60;68.90;;;;;;5090421;28;20044;-44
2021/04/25 09:51:06;;;;;;;2.20;1.08;;;13.60;68.90;;;;;;5089733;28;20056;-47
2021/04/25 09:53:32;;;;;;;1.77;0.90;;;13.60;68.90;;;;;;5090143;28;20125;-43
2021/04/25 09:55:58;;;;;;;1.02;0.93;;;13.60;68.90;;;;;;5088950;28;20135;-52
2021/04/25 09:58:27;;;;;;;1.88;1.20;;;13.60;68.90;;;;;;5090068;28;20512;-56
2021/04/25 10:00:53;;;;;;;1.15;1.00;;;13.60;68.90;;;;;;5089564;28;20500;-57
2021/04/25 10:03:20;;;;;;;1.05;0.90;;;13.60;68.90;;;;;;5089810;28;20098;-56
2021/04/25 10:06:06;;;;;;;3.75;1.35;;;13.60;68.90;;;;;;5089819;28;20048;-50
2021/04/25 10:08:37;;;;;;;1.40;1.02;;;13.60;68.80;;;;;;5090139;28;20499;-51
2021/04/25 10:11:06;;;;;;;1.45;0.80;;;13.60;68.90;;;;;;5081361;28;20048;-56
2021/04/25 10:13:35;;;;;;;1.35;1.08;;;13.60;68.80;;;;;;5077841;28;20504;-45
2021/04/25 10:16:01;;;;;;;2.53;0.88;;;13.60;68.80;;;;;;5089306;28;20059;-45
2021/04/25 10:18:27;;;;;;;1.45;0.85;;;13.60;68.80;;;;;;5088543;28;20051;-52
2021/04/25 10:20:55;;;;;;;1.67;1.05;;;13.60;68.90;;;;;;5068511;28;20044;-44
2021/04/25 10:23:22;;;;;;;6.18;1.52;;;13.60;68.80;;;;;;5087248;28;20044;-50
2021/04/25 10:25:48;;;;;;;4.97;1.40;;;13.50;67.40;;;;;;5089319;28;20048;-49
2021/04/25 10:28:18;;;;;;;6.32;1.67;;;13.50;67.20;;;;;;5092998;28;20465;-51
2021/04/25 10:30:46;;;;;;;2.08;1.20;;;13.50;66.70;;;;;;5088622;28;20071;-49
2021/04/25 10:33:12;;;;;;;3.03;1.45;;;13.30;66.30;;;;;;5089162;28;20071;-53
2021/04/25 10:35:52;;;;;;;4.18;1.50;;;13.40;66.10;;;;;;5092885;28;20062;-49
2021/04/25 10:38:34;;;;;;;5.38;2.00;;;13.30;65.70;;;;;;5089425;28;20047;-55
2021/04/25 10:41:20;;;;;;;4.28;1.40;;;13.30;65.10;;;;;;5088714;28;20048;-49
2021/04/25 10:43:56;;;;;;;5.38;1.48;;;13.30;64.90;;;;;;5087901;28;20048;-53
2021/04/25 10:46:22;;;;;;;5.85;1.13;;;13.40;64.90;;;;;;5089110;28;20056;-53
2021/04/25 10:48:49;;;;;;;4.63;1.85;;;13.30;64.80;;;;;;5088800;28;20077;-54
2021/04/25 10:51:17;;;;;;;5.05;1.85;;;13.30;64.60;;;;;;5088908;28;20058;-52
2021/04/25 10:53:47;;;;;;;4.45;1.60;;;13.40;64.40;;;;;;5088447;28;20051;-47
2021/04/25 10:56:13;;;;;;;4.90;1.92;;;13.30;63.90;;;;;;5088336;28;20101;-48
2021/04/25 10:58:44;;;;;;;3.70;1.73;;;13.30;64.00;;;;;;5088438;28;20799;-45
2021/04/25 11:01:35;;;;;;;3.33;1.60;;;13.30;64.10;;;;;;5088909;28;20504;-47
2021/04/25 11:04:01;;;;;;;3.35;1.48;;;13.30;64.20;;;;;;5088221;28;20154;-45
2021/04/25 11:06:28;;;;;;;3.85;1.70;;;13.30;64.40;;;;;;5088563;28;20131;-46
2021/04/25 11:08:55;;;;;;;3.40;1.33;;;13.30;64.50;;;;;;5088301;28;20442;-46
2021/04/25 11:11:29;;;;;;;1.83;1.00;;;13.40;64.70;;;;;;5088369;28;20109;-44
2021/04/25 11:13:55;;;;;;;5.63;1.23;;;13.40;64.80;;;;;;5086362;28;20056;-46
2021/04/25 11:16:26;;;;;;;2.22;1.25;;;13.40;65.00;;;;;;5087710;28;20055;-48
2021/04/25 11:19:03;;;;;;;8.02;1.95;;;13.40;65.10;;;;;;5087967;28;20491;-47
2021/04/25 11:21:40;;;;;;;2.15;1.02;;;13.50;65.30;;;;;;5088219;28;20407;-43
2021/04/25 11:24:08;;;;;;;2.53;1.35;;;13.50;65.50;;;;;;5088177;28;20163;-44
2021/04/25 11:26:34;;;;;;;3.55;1.70;;;13.50;65.60;;;;;;5088492;28;20333;-45
2021/04/25 11:29:04;;;;;;;1.98;1.10;;;13.50;65.70;;;;;;5086956;28;20058;-44
2021/04/25 11:34:25;;;;;;;4.95;1.02;;;13.60;66.00;;;;;;5088303;28;20082;-42
2021/04/25 11:37:05;;;;;;;5.05;1.30;;;13.60;66.10;;;;;;5087598;28;20670;-45
2021/04/25 11:39:34;;;;;;;4.72;1.27;;;13.60;66.10;;;;;;5087999;28;20048;-45
2021/04/25 11:42:02;;;;;;;4.57;1.40;;;13.60;66.20;;;;;;5087054;28;20067;-41
2021/04/25 11:44:29;;;;;;;3.72;1.10;;;13.60;66.30;;;;;;5087938;28;20040;-47
2021/04/25 11:46:56;;;;;;;5.45;1.52;;;13.60;66.40;;;;;;5087484;28;20054;-47
2021/04/25 11:49:32;;;;;;;2.05;1.25;;;13.60;66.40;;;;;;5087526;28;20048;-47
2021/04/25 11:52:18;;;;;;;7.03;1.55;;;13.70;66.60;;;;;;5087204;28;20522;-46
2021/04/25 11:54:49;;;;;;;4.00;1.23;;;13.70;66.60;;;;;;5087521;28;20508;-40
2021/04/25 11:57:17;;;;;;;4.30;1.67;;;13.70;66.70;;;;;;5087528;28;20499;-50
2021/04/25 12:00:17;;;;;;;3.22;1.30;;;13.70;66.80;;;;;;5087279;28;20040;-44
2021/04/25 12:02:50;;;;;;;2.33;1.20;;;13.70;66.90;;;;;;5087932;28;20407;-44
2021/04/25 12:05:26;;;;;;;3.97;1.30;;;13.80;66.90;;;;;;5087609;28;20044;-51
2021/04/25 12:07:53;;;;;;;1.88;1.40;;;13.70;66.90;;;;;;5087005;28;20492;-39
2021/04/25 12:10:24;;;;;;;2.88;0.90;;;13.70;66.90;;;;;;5087784;28;20052;-49
2021/04/25 12:13:03;;;;;;;1.33;0.95;;;13.80;67.00;;;;;;5087325;28;20083;-53
2021/04/25 12:15:53;;;;;;;1.50;0.93;;;13.80;67.10;;;;;;5086145;28;20052;-53
2021/04/25 12:18:38;;;;;;;3.08;1.05;;;13.80;67.10;;;;;;5087625;28;20044;-54
2021/04/25 12:21:05;;;;;;;2.15;1.23;;;13.80;67.10;;;;;;5086867;28;20468;-49
2021/04/25 12:23:34;;;;;;;3.20;1.70;;;13.80;67.10;;;;;;5086603;28;20036;-50
2021/04/25 12:26:07;;;;;;;3.25;1.02;;;13.80;67.20;;;;;;5086481;28;20044;-49
2021/04/25 12:28:42;;;;;;;1.65;1.10;;;13.80;67.20;;;;;;5087006;28;20069;-55
2021/04/25 12:31:22;;;;;;;2.78;1.23;;;13.80;67.20;;;;;;5084517;28;20128;-44
2021/04/25 12:33:49;;;;;;;1.95;0.98;;;13.80;67.30;;;;;;5084660;28;20047;-45
2021/04/25 12:36:17;;;;;;;1.88;1.00;;;13.80;67.30;;;;;;5087448;28;20040;-46
2021/04/25 12:38:54;;;;;;;3.38;1.48;;;13.90;67.30;;;;;;5087810;28;20085;-44
2021/04/25 12:41:23;;;;;;;2.88;1.15;;;13.90;67.40;;;;;;5087451;28;20067;-44
2021/04/25 12:43:48;;;;;;;1.90;0.93;;;13.90;67.40;;;;;;5086697;28;20261;-42
2021/04/25 12:46:17;;;;;;;2.03;1.27;;;13.80;67.40;;;;;;5086888;28;20654;-47
2021/04/25 12:48:47;;;;;;;4.32;1.23;;;13.90;67.40;;;;;;5087418;28;20044;-46
2021/04/25 12:51:43;;;;;;;2.30;1.15;;;13.90;67.40;;;;;;5087772;28;20067;-43
2021/04/25 12:54:18;;;;;;;;;;;13.90;67.50;;;;;;5088805;28;20115;-46